Time;durP1;ratioP1;P1;durP2;ratioP2;P2;SDS_P1;SDS_P2;PMS_P1;PMS_P2;Temp;Humidity;BMP_temperature;BMP_pressure;BME280_temperature;BME280_humidity;BME280_pressure;Samples;Min_cycle;Max_cycle;Signal;HPM_P1;HPM_P2
2024/02/13 00:01:39;;;;;;;9.90;4.18;;;10.60;96.70;;;;;;5045757;28;20041;-71
2024/02/13 00:04:14;;;;;;;12.82;4.95;;;10.60;96.70;;;;;;5046325;28;20060;-72
2024/02/13 00:06:43;;;;;;;8.98;4.07;;;10.60;96.70;;;;;;5043703;28;20119;-71
2024/02/13 00:09:13;;;;;;;10.73;4.63;;;10.60;96.70;;;;;;5036941;28;20107;-71
2024/02/13 00:11:46;;;;;;;9.43;4.82;;;10.50;96.70;;;;;;5043695;28;20061;-70
2024/02/13 00:14:18;;;;;;;8.85;4.50;;;10.50;96.70;;;;;;5041204;28;20041;-70
2024/02/13 00:16:47;;;;;;;8.50;4.25;;;10.30;96.70;;;;;;5038938;28;20045;-71
2024/02/13 00:19:16;;;;;;;8.85;4.60;;;10.40;96.70;;;;;;5024887;28;20049;-70
2024/02/13 00:21:46;;;;;;;11.10;4.55;;;10.40;96.70;;;;;;5044516;28;20037;-71
2024/02/13 00:24:16;;;;;;;7.47;4.50;;;10.30;96.70;;;;;;5045778;28;20037;-71
2024/02/13 00:26:46;;;;;;;8.93;4.65;;;10.30;96.70;;;;;;5040156;28;20583;-70
2024/02/13 00:29:18;;;;;;;8.40;4.15;;;10.30;96.70;;;;;;5042186;28;20132;-71
2024/02/13 00:31:48;;;;;;;9.68;4.72;;;10.30;96.70;;;;;;5026398;28;20049;-71
2024/02/13 00:34:19;;;;;;;10.77;4.35;;;10.30;96.70;;;;;;5043714;28;20041;-71
2024/02/13 00:36:49;;;;;;;8.35;3.88;;;10.30;96.70;;;;;;5022020;28;20563;-71
2024/02/13 00:39:18;;;;;;;8.90;3.95;;;10.30;96.70;;;;;;5037546;28;20615;-71
2024/02/13 00:41:47;;;;;;;10.50;5.00;;;10.30;96.70;;;;;;5026698;28;20041;-71
2024/02/13 00:44:19;;;;;;;9.40;4.95;;;10.30;96.70;;;;;;5045968;28;20494;-70
2024/02/13 00:46:50;;;;;;;9.32;4.90;;;10.30;96.70;;;;;;5036093;28;20048;-71
2024/02/13 00:49:19;;;;;;;10.70;5.13;;;10.30;96.70;;;;;;5038206;28;21032;-71
2024/02/13 00:51:47;;;;;;;12.70;4.90;;;10.20;96.70;;;;;;5043572;28;20061;-71
2024/02/13 00:54:17;;;;;;;8.07;4.25;;;10.20;96.70;;;;;;5040915;28;20060;-71
2024/02/13 00:56:47;;;;;;;9.20;4.55;;;10.10;96.70;;;;;;5044628;28;20533;-72
2024/02/13 00:59:17;;;;;;;9.82;4.20;;;10.10;96.70;;;;;;5046809;28;20049;-71
2024/02/13 01:01:46;;;;;;;8.85;4.32;;;10.10;96.70;;;;;;5043111;28;20045;-71
2024/02/13 01:04:17;;;;;;;9.73;4.22;;;10.00;96.70;;;;;;5041394;28;20048;-72
2024/02/13 01:06:46;;;;;;;10.95;4.45;;;10.00;96.70;;;;;;5029708;28;20041;-71
2024/02/13 01:09:16;;;;;;;9.20;4.15;;;10.00;96.70;;;;;;5041489;28;20059;-72
2024/02/13 01:11:46;;;;;;;6.72;3.85;;;10.00;96.70;;;;;;5027876;28;20052;-71
2024/02/13 01:14:14;;;;;;;10.20;4.63;;;10.00;96.70;;;;;;5040770;28;20134;-72
2024/02/13 01:16:44;;;;;;;6.88;3.55;;;9.90;96.70;;;;;;5023370;28;20465;-71
2024/02/13 01:19:13;;;;;;;7.47;4.10;;;9.90;96.70;;;;;;5048978;28;20049;-71
2024/02/13 01:21:43;;;;;;;8.38;4.70;;;9.90;96.70;;;;;;5029331;28;20064;-71
2024/02/13 01:24:12;;;;;;;12.60;5.57;;;10.00;96.70;;;;;;5035490;28;20419;-72
2024/02/13 01:26:44;;;;;;;15.98;6.88;;;9.90;96.70;;;;;;5049008;28;20075;-71
2024/02/13 01:29:15;;;;;;;15.57;7.88;;;9.90;96.70;;;;;;5042989;28;20049;-71
2024/02/13 01:31:47;;;;;;;9.70;4.80;;;9.90;96.70;;;;;;5044665;28;20040;-71
2024/02/13 01:34:16;;;;;;;10.40;4.68;;;9.80;96.70;;;;;;5045188;28;20068;-71
2024/02/13 01:36:45;;;;;;;9.45;3.20;;;9.80;96.70;;;;;;5031414;28;20618;-71
2024/02/13 01:39:14;;;;;;;4.93;2.80;;;9.90;96.70;;;;;;5048492;28;20752;-71
2024/02/13 01:41:44;;;;;;;7.45;2.88;;;9.80;96.70;;;;;;5047394;28;20041;-71
2024/02/13 01:44:13;;;;;;;5.68;2.83;;;9.80;96.70;;;;;;5046076;28;20579;-71
2024/02/13 01:46:41;;;;;;;6.03;3.13;;;9.80;96.70;;;;;;5047363;28;20425;-71
2024/02/13 01:49:11;;;;;;;8.35;2.85;;;9.80;96.70;;;;;;5029178;28;20048;-71
2024/02/13 01:51:41;;;;;;;5.68;2.80;;;9.70;96.70;;;;;;5030750;28;20049;-71
2024/02/13 01:54:10;;;;;;;6.95;2.75;;;9.70;96.70;;;;;;5028048;28;20127;-71
2024/02/13 01:56:41;;;;;;;7.78;3.55;;;9.70;96.70;;;;;;5047135;28;20417;-71
2024/02/13 01:59:11;;;;;;;6.68;3.38;;;9.60;96.70;;;;;;5046709;28;20060;-71
2024/02/13 02:01:42;;;;;;;6.35;3.00;;;9.60;96.70;;;;;;5046189;28;20451;-70
2024/02/13 02:04:13;;;;;;;8.55;3.45;;;9.60;96.70;;;;;;5027225;28;20053;-71
2024/02/13 02:06:42;;;;;;;6.22;3.10;;;9.50;96.70;;;;;;5048761;28;20150;-71
2024/02/13 02:09:11;;;;;;;11.75;3.30;;;9.60;96.70;;;;;;5047311;28;20052;-71
2024/02/13 02:11:39;;;;;;;6.05;2.58;;;9.60;96.70;;;;;;5046648;28;20045;-71
2024/02/13 02:14:09;;;;;;;4.15;2.08;;;9.60;96.70;;;;;;5028882;28;20042;-71
2024/02/13 02:16:39;;;;;;;7.95;2.17;;;9.60;96.70;;;;;;5043200;28;20049;-71
2024/02/13 02:19:08;;;;;;;6.32;2.47;;;9.60;96.70;;;;;;5048173;28;20134;-71
2024/02/13 02:21:40;;;;;;;4.43;1.75;;;9.60;96.70;;;;;;5043377;28;20044;-71
2024/02/13 02:24:10;;;;;;;6.40;1.70;;;9.50;96.70;;;;;;5021009;28;20053;-72
2024/02/13 02:26:42;;;;;;;4.82;1.92;;;9.50;96.70;;;;;;5042128;28;20567;-71
2024/02/13 02:29:11;;;;;;;4.60;1.88;;;9.40;96.70;;;;;;5020031;28;20049;-71
2024/02/13 02:31:40;;;;;;;5.88;1.95;;;9.40;96.70;;;;;;5042493;28;20120;-71
2024/02/13 02:34:10;;;;;;;6.07;1.90;;;9.40;96.70;;;;;;5043135;28;20148;-71
2024/02/13 02:36:39;;;;;;;4.68;1.83;;;9.40;96.70;;;;;;5046287;28;20044;-71
2024/02/13 02:39:10;;;;;;;3.28;1.70;;;9.40;96.70;;;;;;5022114;28;20132;-71
2024/02/13 02:41:42;;;;;;;5.88;1.83;;;9.40;96.70;;;;;;5029036;28;20052;-71
2024/02/13 02:44:13;;;;;;;4.82;1.60;;;9.40;96.70;;;;;;5046273;28;20206;-71
2024/02/13 02:46:43;;;;;;;3.45;1.27;;;9.30;96.70;;;;;;5044317;28;20044;-72
2024/02/13 02:49:13;;;;;;;3.78;1.73;;;9.30;96.70;;;;;;5047006;28;20497;-70
2024/02/13 02:51:43;;;;;;;6.07;1.55;;;9.30;96.70;;;;;;5040600;28;20131;-71
2024/02/13 02:54:14;;;;;;;4.90;1.70;;;9.30;96.70;;;;;;5043526;28;20485;-72
2024/02/13 02:56:46;;;;;;;4.28;1.60;;;9.30;96.70;;;;;;5041761;28;20067;-71
2024/02/13 02:59:16;;;;;;;5.15;1.58;;;9.30;96.70;;;;;;5047435;28;20383;-71
2024/02/13 03:01:46;;;;;;;4.32;1.60;;;9.30;96.70;;;;;;5042021;28;20045;-71
2024/02/13 03:04:17;;;;;;;5.28;1.67;;;9.20;96.70;;;;;;5044852;28;20110;-71
2024/02/13 03:06:45;;;;;;;5.35;1.70;;;9.20;96.70;;;;;;5024905;28;20041;-71
2024/02/13 03:09:16;;;;;;;4.65;2.05;;;9.20;96.70;;;;;;5043133;28;20061;-71
2024/02/13 03:11:47;;;;;;;3.92;1.98;;;9.20;96.70;;;;;;5027809;28;20048;-71
2024/02/13 03:14:18;;;;;;;5.68;2.17;;;9.20;96.70;;;;;;5045378;28;20068;-71
2024/02/13 03:16:49;;;;;;;4.47;2.00;;;9.20;96.70;;;;;;5046564;28;20048;-71
2024/02/13 03:19:18;;;;;;;5.38;1.92;;;9.10;96.70;;;;;;5047321;28;20394;-71
2024/02/13 03:21:47;;;;;;;3.80;1.52;;;9.10;96.70;;;;;;5045493;28;20075;-71
2024/02/13 03:24:16;;;;;;;6.45;1.92;;;9.10;96.70;;;;;;5046348;28;20057;-71
2024/02/13 03:26:47;;;;;;;3.17;1.50;;;9.10;96.70;;;;;;5044428;28;20132;-72
2024/02/13 03:29:18;;;;;;;6.40;1.65;;;9.00;96.70;;;;;;5046033;28;20052;-71
2024/02/13 03:31:47;;;;;;;3.17;1.42;;;9.00;96.70;;;;;;5044590;28;20168;-71
2024/02/13 03:34:16;;;;;;;3.65;1.55;;;9.00;96.70;;;;;;5044041;28;20118;-71
2024/02/13 03:36:45;;;;;;;5.45;1.45;;;9.00;96.70;;;;;;5046699;28;20048;-71
2024/02/13 03:39:14;;;;;;;5.05;1.25;;;9.00;96.70;;;;;;5044332;28;20059;-71
2024/02/13 03:41:48;;;;;;;3.35;1.08;;;9.00;96.70;;;;;;5025617;28;20051;-72
2024/02/13 03:44:17;;;;;;;4.40;1.67;;;9.00;96.70;;;;;;5041898;28;20128;-71
2024/02/13 03:46:47;;;;;;;4.68;1.35;;;8.90;96.70;;;;;;5045390;28;20448;-71
2024/02/13 03:49:16;;;;;;;3.17;1.15;;;8.80;96.70;;;;;;5042379;28;20080;-71
2024/02/13 03:51:45;;;;;;;4.78;1.30;;;8.80;96.70;;;;;;5040496;28;20037;-71
2024/02/13 03:54:15;;;;;;;4.72;1.50;;;8.90;96.70;;;;;;5046556;28;20486;-71
2024/02/13 03:56:46;;;;;;;2.75;1.52;;;9.00;96.70;;;;;;5046112;28;20049;-71
2024/02/13 03:59:16;;;;;;;6.65;2.38;;;9.00;96.70;;;;;;5044930;28;20048;-71
2024/02/13 04:01:45;;;;;;;6.45;2.60;;;8.90;96.70;;;;;;5043886;28;20041;-71
2024/02/13 04:04:15;;;;;;;4.50;1.77;;;8.90;96.70;;;;;;5044835;28;20045;-71
2024/02/13 04:06:44;;;;;;;4.35;1.25;;;8.80;96.70;;;;;;5027994;28;20454;-72
2024/02/13 04:09:13;;;;;;;3.70;1.10;;;8.90;96.70;;;;;;5018472;28;20418;-71
2024/02/13 04:11:45;;;;;;;5.05;1.13;;;8.90;96.70;;;;;;5043198;28;20059;-72
2024/02/13 04:14:16;;;;;;;5.28;1.48;;;9.00;96.70;;;;;;5036104;28;20482;-71
2024/02/13 04:16:45;;;;;;;4.18;1.25;;;8.90;96.70;;;;;;5046142;28;20107;-72
2024/02/13 04:19:14;;;;;;;1.85;1.00;;;8.90;96.70;;;;;;5042324;28;20041;-71
2024/02/13 04:21:42;;;;;;;3.38;1.30;;;8.80;96.70;;;;;;5039657;28;20375;-71
2024/02/13 04:24:11;;;;;;;4.50;1.52;;;8.90;96.70;;;;;;5044368;28;20041;-71
2024/02/13 04:26:43;;;;;;;4.32;1.55;;;8.90;96.70;;;;;;5045360;28;20422;-71
2024/02/13 04:29:14;;;;;;;4.22;1.40;;;8.80;96.70;;;;;;5039252;28;20082;-71
2024/02/13 04:31:43;;;;;;;3.78;1.35;;;8.80;96.70;;;;;;5045448;28;20704;-71
2024/02/13 04:34:13;;;;;;;3.55;1.33;;;8.70;96.70;;;;;;5031194;28;20132;-71
2024/02/13 04:36:42;;;;;;;3.25;1.15;;;8.70;96.70;;;;;;5047480;28;20052;-71
2024/02/13 04:39:11;;;;;;;4.20;1.10;;;8.70;96.70;;;;;;5047498;28;20049;-71
2024/02/13 04:41:44;;;;;;;2.88;0.90;;;8.60;96.70;;;;;;5042981;28;21207;-70
2024/02/13 04:44:14;;;;;;;2.72;0.95;;;8.50;96.70;;;;;;5031300;28;20127;-71
2024/02/13 04:46:43;;;;;;;4.25;1.42;;;8.50;96.70;;;;;;5048320;28;20056;-71
2024/02/13 04:49:12;;;;;;;3.55;1.42;;;8.50;96.70;;;;;;5046092;28;20056;-72
2024/02/13 04:51:41;;;;;;;2.95;1.00;;;8.50;96.70;;;;;;5047191;28;20132;-71
2024/02/13 04:54:11;;;;;;;2.50;0.93;;;8.40;96.70;;;;;;5046983;28;20060;-71
2024/02/13 04:56:40;;;;;;;4.22;1.17;;;8.40;96.70;;;;;;5047549;28;20048;-71
2024/02/13 04:59:14;;;;;;;4.63;1.15;;;8.30;96.70;;;;;;5046712;28;20150;-71
2024/02/13 05:01:46;;;;;;;5.07;0.93;;;8.30;96.70;;;;;;5046218;28;20072;-71
2024/02/13 05:09:36;;;;;;;6.13;1.65;;;8.30;96.70;;;;;;5045043;28;20056;-71
2024/02/13 05:12:06;;;;;;;2.10;1.02;;;8.20;96.70;;;;;;5040394;28;20045;-71
2024/02/13 05:14:35;;;;;;;3.63;1.17;;;8.20;96.70;;;;;;5047601;28;20147;-71
2024/02/13 05:17:06;;;;;;;3.03;1.10;;;8.20;96.70;;;;;;5049491;28;20067;-71
2024/02/13 05:19:36;;;;;;;2.97;0.85;;;8.10;96.70;;;;;;5048359;28;20080;-71
2024/02/13 05:22:06;;;;;;;3.72;1.02;;;8.10;96.70;;;;;;5048289;28;20492;-71
2024/02/13 05:24:36;;;;;;;2.85;1.05;;;8.10;96.70;;;;;;5047865;28;20049;-71
2024/02/13 05:27:09;;;;;;;3.88;1.25;;;8.10;96.70;;;;;;5041619;28;20122;-71
2024/02/13 05:29:41;;;;;;;8.65;2.20;;;8.00;96.70;;;;;;5025627;28;20053;-71
2024/02/13 05:32:14;;;;;;;9.48;2.58;;;7.90;96.70;;;;;;5047765;28;20073;-71
2024/02/13 05:34:43;;;;;;;8.88;2.10;;;8.00;96.70;;;;;;5048343;28;20063;-71
2024/02/13 05:37:13;;;;;;;6.15;2.50;;;7.90;96.70;;;;;;5041980;28;20044;-71
2024/02/13 05:39:43;;;;;;;10.90;2.72;;;8.00;96.70;;;;;;5047172;28;20480;-71
2024/02/13 05:42:12;;;;;;;15.15;3.00;;;8.00;96.70;;;;;;5046660;28;20063;-71
2024/02/13 05:44:43;;;;;;;12.15;3.20;;;7.90;96.70;;;;;;5047639;28;20780;-70
2024/02/13 05:47:15;;;;;;;14.30;3.30;;;7.90;96.70;;;;;;5048098;28;20429;-71
2024/02/13 05:49:45;;;;;;;6.72;2.40;;;7.80;96.70;;;;;;5044612;28;20044;-71
2024/02/13 05:52:14;;;;;;;6.95;2.88;;;7.80;96.70;;;;;;5027432;28;20045;-71
2024/02/13 05:54:44;;;;;;;7.30;3.15;;;7.80;96.70;;;;;;5030765;28;20148;-71
2024/02/13 05:57:13;;;;;;;7.40;2.60;;;7.80;96.70;;;;;;5045737;28;20053;-71
2024/02/13 05:59:43;;;;;;;5.57;2.65;;;7.80;96.70;;;;;;5047719;28;20033;-71
2024/02/13 06:02:12;;;;;;;5.72;1.90;;;7.80;96.70;;;;;;5030136;28;20060;-71
2024/02/13 06:04:45;;;;;;;5.80;2.28;;;7.80;96.70;;;;;;5043941;28;20045;-71
2024/02/13 06:07:13;;;;;;;4.30;2.13;;;7.70;96.70;;;;;;5041204;28;20049;-71
2024/02/13 06:09:42;;;;;;;5.32;2.58;;;7.80;96.70;;;;;;5040987;28;20115;-71
2024/02/13 06:12:12;;;;;;;3.88;2.25;;;7.80;96.70;;;;;;5047777;28;20059;-71
2024/02/13 06:14:42;;;;;;;4.50;2.30;;;7.80;96.70;;;;;;5048419;28;20056;-71
2024/02/13 06:17:12;;;;;;;2.50;1.95;;;7.70;96.70;;;;;;5047431;28;20052;-71
2024/02/13 06:19:42;;;;;;;3.03;1.83;;;7.70;96.70;;;;;;5026824;28;20049;-72
2024/02/13 06:22:13;;;;;;;2.92;2.00;;;7.70;96.70;;;;;;5041091;28;20099;-71
2024/02/13 06:24:42;;;;;;;5.85;2.03;;;7.70;96.70;;;;;;5039922;28;20087;-71
2024/02/13 06:27:12;;;;;;;2.83;2.20;;;7.60;96.70;;;;;;5046608;28;20045;-71
2024/02/13 06:29:44;;;;;;;3.50;2.17;;;7.70;96.70;;;;;;5046112;28;20118;-71
2024/02/13 06:32:14;;;;;;;3.78;2.05;;;7.70;96.70;;;;;;5046182;28;20052;-70
2024/02/13 06:34:43;;;;;;;5.32;2.63;;;7.60;96.70;;;;;;5044206;28;20045;-71
2024/02/13 06:37:14;;;;;;;7.32;2.80;;;7.70;96.70;;;;;;5044163;28;20103;-71
2024/02/13 06:39:44;;;;;;;7.25;2.50;;;7.70;96.70;;;;;;5046659;28;20102;-71
2024/02/13 06:42:14;;;;;;;4.97;2.53;;;7.80;96.70;;;;;;5045657;28;20044;-72
2024/02/13 06:44:46;;;;;;;5.75;2.67;;;7.80;96.70;;;;;;5044344;28;20069;-71
2024/02/13 06:47:15;;;;;;;4.90;2.42;;;7.80;96.70;;;;;;5033196;28;20585;-71
2024/02/13 06:49:43;;;;;;;6.63;2.40;;;7.80;96.70;;;;;;5036627;28;20546;-71
2024/02/13 06:52:14;;;;;;;3.03;1.98;;;7.80;96.70;;;;;;5041269;28;20115;-71
2024/02/13 06:54:45;;;;;;;7.03;2.38;;;7.70;96.70;;;;;;5041364;28;20049;-71
2024/02/13 06:57:18;;;;;;;3.92;2.45;;;7.70;96.70;;;;;;5046065;28;20127;-71
2024/02/13 06:59:47;;;;;;;15.52;5.22;;;7.70;96.70;;;;;;5045461;28;20154;-71
2024/02/13 07:02:17;;;;;;;9.32;3.00;;;7.80;96.70;;;;;;5042064;28;20056;-71
2024/02/13 07:04:45;;;;;;;6.97;2.83;;;7.80;96.70;;;;;;5045564;28;20041;-71
2024/02/13 07:07:16;;;;;;;7.38;2.60;;;7.70;96.70;;;;;;5046459;28;20053;-71
2024/02/13 07:10:06;;;;;;;11.75;2.90;;;7.70;96.70;;;;;;5045786;28;20049;-71
2024/02/13 07:12:36;;;;;;;8.13;3.50;;;7.80;96.70;;;;;;5045069;28;20075;-71
2024/02/13 07:15:06;;;;;;;11.88;5.65;;;7.90;96.70;;;;;;5046855;28;20497;-70
2024/02/13 07:17:35;;;;;;;12.55;5.40;;;7.90;96.70;;;;;;5038060;28;20079;-71
2024/02/13 07:20:25;;;;;;;13.55;6.75;;;7.90;96.70;;;;;;5046849;28;20053;-71
2024/02/13 07:22:57;;;;;;;22.27;10.48;;;7.90;96.70;;;;;;5045004;28;20048;-71
2024/02/13 07:25:28;;;;;;;22.70;12.48;;;7.90;96.70;;;;;;5027296;28;20045;-71
2024/02/13 07:27:58;;;;;;;25.50;13.55;;;7.90;96.70;;;;;;5043527;28;20053;-71
2024/02/13 07:30:27;;;;;;;36.05;16.58;;;7.90;96.70;;;;;;5026984;28;20052;-71
2024/02/13 07:32:57;;;;;;;30.77;15.80;;;8.00;96.70;;;;;;5046865;28;20052;-71
2024/02/13 07:35:27;;;;;;;17.60;9.43;;;8.10;96.70;;;;;;5025014;28;20122;-71
2024/02/13 07:37:58;;;;;;;13.20;6.93;;;8.20;96.70;;;;;;5045247;28;20049;-71
2024/02/13 07:40:27;;;;;;;15.13;7.28;;;8.20;96.70;;;;;;5046339;28;20037;-71
2024/02/13 07:43:00;;;;;;;13.25;6.05;;;8.30;96.70;;;;;;5045213;28;20113;-71
2024/02/13 07:45:30;;;;;;;14.43;6.10;;;8.30;96.70;;;;;;5043436;28;20635;-71
2024/02/13 07:48:01;;;;;;;9.75;5.60;;;8.40;96.70;;;;;;5046948;28;20044;-71
2024/02/13 07:50:31;;;;;;;8.38;5.00;;;8.50;96.70;;;;;;5045192;28;20044;-71
2024/02/13 07:53:06;;;;;;;7.75;3.65;;;8.60;96.70;;;;;;5044745;28;20122;-71
2024/02/13 07:55:35;;;;;;;5.18;2.65;;;8.60;96.70;;;;;;5045801;28;20160;-71
2024/02/13 07:58:05;;;;;;;4.93;3.00;;;8.60;96.70;;;;;;5028110;28;20116;-71
2024/02/13 08:00:36;;;;;;;5.85;2.80;;;8.60;96.70;;;;;;5021539;28;20162;-71
2024/02/13 08:03:06;;;;;;;4.22;2.20;;;8.70;96.70;;;;;;5046336;28;20049;-71
2024/02/13 08:05:37;;;;;;;4.70;3.05;;;8.80;96.70;;;;;;5040215;28;20208;-71
2024/02/13 08:08:10;;;;;;;6.80;2.65;;;8.90;96.70;;;;;;5044509;28;20103;-71
2024/02/13 08:10:41;;;;;;;6.93;2.60;;;9.00;96.70;;;;;;5043734;28;20110;-71
2024/02/13 08:13:11;;;;;;;8.35;2.83;;;9.00;96.70;;;;;;5035301;28;20132;-71
2024/02/13 08:15:39;;;;;;;4.55;2.40;;;9.10;96.70;;;;;;5041352;28;20485;-71
2024/02/13 08:18:09;;;;;;;4.85;2.38;;;9.10;96.70;;;;;;5046046;28;20502;-71
2024/02/13 08:20:39;;;;;;;4.55;2.58;;;9.10;96.70;;;;;;5043705;28;20036;-71
2024/02/13 08:23:12;;;;;;;5.95;2.75;;;9.20;96.70;;;;;;5042014;28;20064;-70
2024/02/13 08:25:43;;;;;;;4.07;2.50;;;9.30;96.70;;;;;;5045050;28;20041;-71
2024/02/13 08:28:13;;;;;;;5.97;2.80;;;9.40;96.70;;;;;;5044140;28;20498;-71
2024/02/13 08:30:42;;;;;;;4.15;2.20;;;9.50;96.70;;;;;;5040517;28;20053;-71
2024/02/13 08:33:10;;;;;;;6.30;2.83;;;9.50;96.70;;;;;;5027805;28;20506;-71
2024/02/13 08:35:42;;;;;;;5.88;2.70;;;9.60;96.70;;;;;;5028082;28;20045;-71
2024/02/13 08:38:13;;;;;;;6.75;2.78;;;9.70;96.70;;;;;;5045156;28;20500;-71
2024/02/13 08:40:42;;;;;;;6.97;2.70;;;9.80;96.70;;;;;;5042268;28;20045;-72
2024/02/13 08:43:10;;;;;;;4.00;2.50;;;9.90;96.70;;;;;;5036359;28;20145;-71
2024/02/13 08:45:39;;;;;;;6.47;2.85;;;9.90;96.70;;;;;;5039371;28;20044;-71
2024/02/13 08:48:08;;;;;;;6.28;2.88;;;10.00;96.70;;;;;;5043273;28;20052;-71
2024/02/13 08:50:37;;;;;;;8.02;2.78;;;10.00;96.70;;;;;;5042538;28;20053;-71
2024/02/13 08:53:06;;;;;;;6.43;3.22;;;10.10;96.70;;;;;;5027660;28;20101;-71
2024/02/13 08:55:36;;;;;;;6.80;2.60;;;10.20;96.70;;;;;;5018932;28;20049;-71
2024/02/13 08:58:04;;;;;;;7.25;3.30;;;10.30;96.70;;;;;;5026482;28;20413;-72
2024/02/13 09:00:34;;;;;;;6.68;2.85;;;10.40;96.70;;;;;;5041742;28;20490;-72
2024/02/13 09:03:05;;;;;;;7.88;3.05;;;10.50;96.70;;;;;;5043816;28;20051;-71
2024/02/13 09:05:35;;;;;;;5.97;2.97;;;10.50;96.70;;;;;;5027587;28;20060;-72
2024/02/13 09:08:06;;;;;;;7.60;3.15;;;10.60;96.70;;;;;;5033501;28;20926;-72
2024/02/13 09:10:38;;;;;;;7.90;3.35;;;10.50;96.70;;;;;;5044522;28;20089;-71
2024/02/13 09:13:08;;;;;;;4.93;3.05;;;10.60;96.70;;;;;;5044541;28;20055;-72
2024/02/13 09:15:37;;;;;;;7.40;3.40;;;10.70;96.70;;;;;;5026481;28;20049;-72
2024/02/13 09:18:06;;;;;;;6.70;3.20;;;10.80;96.70;;;;;;5043633;28;20128;-72
2024/02/13 09:20:35;;;;;;;5.82;3.35;;;11.00;96.70;;;;;;5047734;28;20080;-71
2024/02/13 09:23:05;;;;;;;8.85;3.47;;;11.10;96.70;;;;;;5044105;28;20376;-71
2024/02/13 09:25:38;;;;;;;7.97;3.72;;;11.20;96.70;;;;;;5048468;28;20603;-70
2024/02/13 09:28:09;;;;;;;8.77;4.28;;;11.20;96.70;;;;;;5045227;28;20037;-71
2024/02/13 09:30:38;;;;;;;11.80;5.00;;;11.40;96.70;;;;;;5038414;28;20046;-71
2024/02/13 09:33:09;;;;;;;8.38;4.53;;;11.50;96.70;;;;;;5028093;28;20075;-72
2024/02/13 09:35:38;;;;;;;9.05;4.68;;;11.60;96.70;;;;;;5049080;28;20049;-72
2024/02/13 09:38:08;;;;;;;8.95;4.43;;;11.70;96.70;;;;;;5048695;28;20053;-71
2024/02/13 09:40:40;;;;;;;12.13;4.38;;;11.70;96.70;;;;;;5047283;28;20052;-72
2024/02/13 09:43:11;;;;;;;8.00;3.83;;;11.70;96.70;;;;;;5044751;28;20106;-71
2024/02/13 09:45:41;;;;;;;8.23;3.83;;;11.80;96.70;;;;;;5047469;28;20073;-71
2024/02/13 09:48:20;;;;;;;7.90;3.60;;;12.00;96.70;;;;;;5048536;28;20044;-72
2024/02/13 09:50:50;;;;;;;8.77;4.20;;;12.00;96.70;;;;;;5043320;28;20045;-72
2024/02/13 09:53:25;;;;;;;10.88;4.20;;;12.20;96.70;;;;;;5044502;28;20050;-71
2024/02/13 09:55:58;;;;;;;8.38;4.40;;;12.20;96.70;;;;;;5049009;28;20045;-72
2024/02/13 09:58:30;;;;;;;7.75;3.72;;;12.30;96.70;;;;;;5026943;28;21104;-70
2024/02/13 10:01:00;;;;;;;7.63;4.18;;;12.40;96.70;;;;;;5045907;28;20243;-70
2024/02/13 10:03:29;;;;;;;7.63;3.67;;;12.50;96.70;;;;;;5048462;28;20045;-70
2024/02/13 10:05:58;;;;;;;13.35;4.50;;;12.60;96.70;;;;;;5044387;28;20510;-70
2024/02/13 10:08:30;;;;;;;7.95;4.05;;;12.80;96.70;;;;;;5048431;28;20063;-69
2024/02/13 10:11:03;;;;;;;6.85;4.10;;;12.90;96.70;;;;;;5030099;28;20060;-69
2024/02/13 10:13:35;;;;;;;7.30;3.92;;;12.90;96.70;;;;;;5044870;28;20045;-70
2024/02/13 10:16:04;;;;;;;8.07;4.10;;;13.00;96.70;;;;;;5044410;28;20123;-71
2024/02/13 10:18:33;;;;;;;10.30;3.90;;;13.10;96.70;;;;;;5048841;28;20041;-70
2024/02/13 10:21:05;;;;;;;6.38;3.78;;;13.20;96.70;;;;;;5043141;28;20084;-70
2024/02/13 10:23:35;;;;;;;11.50;3.65;;;13.30;96.70;;;;;;5046407;28;20080;-70
2024/02/13 10:26:15;;;;;;;7.90;3.65;;;13.40;96.70;;;;;;5039389;28;20056;-69
2024/02/13 10:28:45;;;;;;;9.25;3.13;;;13.40;96.70;;;;;;5042944;28;20049;-69
2024/02/13 10:31:23;;;;;;;10.30;4.32;;;13.40;96.70;;;;;;5047947;28;20041;-69
2024/02/13 10:33:54;;;;;;;13.93;4.47;;;13.40;96.70;;;;;;5044975;28;20044;-70
2024/02/13 10:36:24;;;;;;;8.95;4.35;;;13.60;96.70;;;;;;5047589;28;20052;-70
2024/02/13 10:39:00;;;;;;;10.55;4.65;;;13.70;96.70;;;;;;5047334;28;20563;-70
2024/02/13 10:41:33;;;;;;;9.13;4.37;;;13.90;96.70;;;;;;5047234;28;20056;-72
2024/02/13 10:44:03;;;;;;;14.00;5.18;;;14.00;96.70;;;;;;5046323;28;20057;-70
2024/02/13 10:46:39;;;;;;;13.27;4.93;;;14.10;96.70;;;;;;5047792;28;20048;-71
2024/02/13 10:49:20;;;;;;;15.02;6.18;;;14.20;96.70;;;;;;5048169;28;20059;-71
2024/02/13 10:51:49;;;;;;;13.50;5.85;;;14.30;96.70;;;;;;5044843;28;20048;-71
2024/02/13 10:54:20;;;;;;;13.65;6.22;;;14.40;96.70;;;;;;5047453;28;20084;-70
2024/02/13 10:56:53;;;;;;;13.80;5.28;;;14.50;96.70;;;;;;5021207;28;20110;-71
2024/02/13 10:59:24;;;;;;;12.98;5.90;;;14.60;96.70;;;;;;5047294;28;20095;-70
2024/02/13 11:01:58;;;;;;;11.45;4.90;;;14.60;96.70;;;;;;5029512;28;20048;-72
2024/02/13 11:04:31;;;;;;;10.17;5.07;;;14.60;96.70;;;;;;5020866;28;20050;-71
2024/02/13 11:07:04;;;;;;;13.50;5.25;;;14.80;96.70;;;;;;5047292;28;20044;-72
2024/02/13 11:09:37;;;;;;;12.07;5.55;;;15.00;96.70;;;;;;5047249;28;20076;-73
2024/02/13 11:12:09;;;;;;;11.57;4.38;;;15.00;96.70;;;;;;5029888;28;20602;-73
2024/02/13 11:14:38;;;;;;;9.40;4.60;;;15.10;96.70;;;;;;5026107;28;20041;-73
2024/02/13 11:17:10;;;;;;;8.57;5.10;;;15.20;96.70;;;;;;5047196;28;20037;-73
2024/02/13 11:19:40;;;;;;;14.63;5.57;;;15.20;96.70;;;;;;5040766;28;20056;-73
2024/02/13 11:22:18;;;;;;;13.63;5.00;;;15.30;96.70;;;;;;5046600;28;20072;-73
2024/02/13 11:24:50;;;;;;;8.68;4.55;;;15.40;96.70;;;;;;5044271;28;20375;-73
2024/02/13 11:27:26;;;;;;;9.90;3.78;;;15.50;96.70;;;;;;5020761;28;20107;-73
2024/02/13 11:30:00;;;;;;;8.43;5.03;;;15.50;96.70;;;;;;5047663;28;20807;-73
2024/02/13 11:32:35;;;;;;;7.80;4.38;;;15.50;96.70;;;;;;5029488;28;20515;-73
2024/02/13 11:35:11;;;;;;;6.38;3.92;;;15.50;96.70;;;;;;5047270;28;20662;-73
2024/02/13 11:37:42;;;;;;;7.80;3.95;;;15.60;96.70;;;;;;5047556;28;20052;-73
2024/02/13 11:40:19;;;;;;;7.07;3.45;;;15.70;96.70;;;;;;5029069;28;20045;-73
2024/02/13 11:42:52;;;;;;;8.27;3.60;;;15.70;96.70;;;;;;5045091;28;20045;-73
2024/02/13 11:45:22;;;;;;;5.93;3.38;;;16.00;96.70;;;;;;5020482;28;20123;-73
2024/02/13 11:47:52;;;;;;;6.82;3.17;;;16.10;96.70;;;;;;5039550;28;20072;-74
2024/02/13 11:50:22;;;;;;;5.85;2.72;;;16.10;96.70;;;;;;5047057;28;20076;-73
2024/02/13 11:52:52;;;;;;;6.82;2.42;;;16.20;96.70;;;;;;5047299;28;20049;-73
2024/02/13 11:55:21;;;;;;;8.05;2.90;;;16.30;96.70;;;;;;5024913;28;20715;-73
2024/02/13 11:57:51;;;;;;;6.07;2.80;;;16.40;96.70;;;;;;5045387;28;20155;-73
2024/02/13 12:00:19;;;;;;;8.60;3.13;;;16.50;96.70;;;;;;5038996;28;20387;-74
2024/02/13 12:02:54;;;;;;;4.60;2.35;;;16.50;96.70;;;;;;5046995;28;20045;-73
2024/02/13 12:05:28;;;;;;;6.68;2.25;;;16.60;96.70;;;;;;5028135;28;20049;-73
2024/02/13 12:07:58;;;;;;;4.15;2.60;;;16.70;96.70;;;;;;5047014;28;20128;-73
2024/02/13 12:10:28;;;;;;;5.30;2.53;;;17.00;96.70;;;;;;5045863;28;20104;-74
2024/02/13 12:13:00;;;;;;;6.55;2.55;;;17.10;96.70;;;;;;5029352;28;20770;-73
2024/02/13 12:15:30;;;;;;;4.82;2.63;;;17.20;96.70;;;;;;5030428;28;20786;-74
2024/02/13 12:18:00;;;;;;;6.80;3.20;;;17.30;96.70;;;;;;5046611;28;20055;-73
2024/02/13 12:20:33;;;;;;;4.88;2.85;;;17.40;96.70;;;;;;5046973;28;20052;-73
2024/02/13 12:23:05;;;;;;;3.28;2.20;;;17.50;96.70;;;;;;5044310;28;20048;-73
2024/02/13 12:25:36;;;;;;;4.63;2.60;;;17.50;96.70;;;;;;5046268;28;20037;-73
2024/02/13 12:28:07;;;;;;;5.85;2.80;;;17.50;96.70;;;;;;5045979;28;20053;-73
2024/02/13 12:30:38;;;;;;;6.03;2.30;;;17.60;96.70;;;;;;5028877;28;20044;-73
2024/02/13 12:33:09;;;;;;;4.68;2.30;;;17.70;96.70;;;;;;5045894;28;20053;-73
2024/02/13 12:35:39;;;;;;;5.03;2.28;;;17.80;96.70;;;;;;5028338;28;20084;-73
2024/02/13 12:38:14;;;;;;;4.38;2.50;;;17.80;96.70;;;;;;5046578;28;20132;-73
2024/02/13 12:40:45;;;;;;;3.67;2.22;;;17.70;96.70;;;;;;5045951;28;20548;-73
2024/02/13 12:43:18;;;;;;;6.95;2.40;;;17.80;96.70;;;;;;5045963;28;20116;-72
2024/02/13 12:45:49;;;;;;;4.47;2.75;;;18.10;96.70;;;;;;5046755;28;20059;-73
2024/02/13 12:48:18;;;;;;;4.60;2.33;;;18.10;96.70;;;;;;5044320;28;20092;-72
2024/02/13 12:50:47;;;;;;;6.75;4.80;;;18.20;96.70;;;;;;5028754;28;20051;-73
2024/02/13 12:53:21;;;;;;;6.40;3.10;;;18.20;96.70;;;;;;5049257;28;20690;-72
2024/02/13 12:55:49;;;;;;;4.90;2.70;;;18.20;96.70;;;;;;5050051;28;20147;-73
2024/02/13 12:58:21;;;;;;;3.90;2.05;;;18.20;96.70;;;;;;5050166;28;20052;-72
2024/02/13 13:00:50;;;;;;;3.58;1.75;;;18.30;96.70;;;;;;5049990;28;20056;-73
2024/02/13 13:03:19;;;;;;;2.65;1.60;;;18.50;96.70;;;;;;5049750;28;20510;-73
2024/02/13 13:05:51;;;;;;;5.85;3.13;;;18.50;96.70;;;;;;5049831;28;20063;-73
2024/02/13 13:08:22;;;;;;;5.20;2.45;;;18.70;96.70;;;;;;5042051;28;20053;-72
2024/02/13 13:10:52;;;;;;;3.13;1.65;;;18.60;96.70;;;;;;5023946;28;20135;-73
2024/02/13 13:13:24;;;;;;;2.70;1.85;;;18.70;96.70;;;;;;5045698;28;20769;-73